sensor_id;sensor_type;location;lat;lon;timestamp;pressure;altitude;pressure_sealevel;temperature;humidity
73748;BME280;62056;52.130;5.428;2022-10-01T00:01:14;100505.63;;;11.39;83.25
73748;BME280;62056;52.130;5.428;2022-10-01T00:03:41;100504.84;;;11.38;82.75
73748;BME280;62056;52.130;5.428;2022-10-01T00:06:14;100507.31;;;11.34;82.23
73748;BME280;62056;52.130;5.428;2022-10-01T00:08:44;100485.53;;;11.32;83.00
73748;BME280;62056;52.130;5.428;2022-10-01T00:11:17;100481.78;;;11.33;83.19
73748;BME280;62056;52.130;5.428;2022-10-01T00:13:44;100479.13;;;11.33;82.81
73748;BME280;62056;52.130;5.428;2022-10-01T00:16:14;100472.50;;;11.31;83.00
73748;BME280;62056;52.130;5.428;2022-10-01T00:18:43;100473.13;;;11.28;83.97
73748;BME280;62056;52.130;5.428;2022-10-01T00:21:14;100474.38;;;11.30;86.13
73748;BME280;62056;52.130;5.428;2022-10-01T00:23:41;100463.44;;;11.32;85.99
73748;BME280;62056;52.130;5.428;2022-10-01T00:26:11;100453.09;;;11.30;84.07
73748;BME280;62056;52.130;5.428;2022-10-01T00:28:39;100449.16;;;11.28;83.59
73748;BME280;62056;52.130;5.428;2022-10-01T00:31:07;100439.28;;;11.28;85.12
73748;BME280;62056;52.130;5.428;2022-10-01T00:33:34;100427.84;;;11.28;83.61
73748;BME280;62056;52.130;5.428;2022-10-01T00:36:03;100426.28;;;11.27;85.02
73748;BME280;62056;52.130;5.428;2022-10-01T00:38:32;100405.88;;;11.22;84.74
73748;BME280;62056;52.130;5.428;2022-10-01T00:40:59;100397.41;;;11.20;84.78
73748;BME280;62056;52.130;5.428;2022-10-01T00:43:29;100384.59;;;11.22;84.45
73748;BME280;62056;52.130;5.428;2022-10-01T00:46:02;100375.81;;;11.22;84.65
73748;BME280;62056;52.130;5.428;2022-10-01T00:48:32;100370.78;;;11.20;84.62
73748;BME280;62056;52.130;5.428;2022-10-01T00:51:02;100359.97;;;11.17;84.52
73748;BME280;62056;52.130;5.428;2022-10-01T00:53:32;100358.09;;;11.17;84.92
73748;BME280;62056;52.130;5.428;2022-10-01T00:55:58;100352.47;;;11.19;85.53
73748;BME280;62056;52.130;5.428;2022-10-01T00:58:25;100336.19;;;11.20;87.03
73748;BME280;62056;52.130;5.428;2022-10-01T01:00:53;100345.38;;;11.14;85.43
73748;BME280;62056;52.130;5.428;2022-10-01T01:03:21;100346.78;;;11.11;85.53
73748;BME280;62056;52.130;5.428;2022-10-01T01:05:48;100339.09;;;11.10;85.83
73748;BME280;62056;52.130;5.428;2022-10-01T01:08:16;100334.75;;;11.14;87.16
73748;BME280;62056;52.130;5.428;2022-10-01T01:11:06;100336.13;;;11.11;86.22
73748;BME280;62056;52.130;5.428;2022-10-01T01:16:44;100336.63;;;11.13;86.36
73748;BME280;62056;52.130;5.428;2022-10-01T01:21:59;100319.59;;;11.14;86.99
73748;BME280;62056;52.130;5.428;2022-10-01T01:24:35;100299.06;;;11.15;87.72
73748;BME280;62056;52.130;5.428;2022-10-01T01:27:30;100290.31;;;11.14;88.30
73748;BME280;62056;52.130;5.428;2022-10-01T01:30:06;100273.38;;;11.10;87.21
73748;BME280;62056;52.130;5.428;2022-10-01T01:32:51;100276.03;;;11.10;87.12
73748;BME280;62056;52.130;5.428;2022-10-01T01:35:24;100276.81;;;11.11;86.75
73748;BME280;62056;52.130;5.428;2022-10-01T01:37:55;100253.34;;;11.13;86.94
73748;BME280;62056;52.130;5.428;2022-10-01T01:40:25;100248.81;;;11.13;87.28
73748;BME280;62056;52.130;5.428;2022-10-01T01:42:53;100259.16;;;11.15;87.36
73748;BME280;62056;52.130;5.428;2022-10-01T01:45:24;100246.63;;;11.16;87.62
73748;BME280;62056;52.130;5.428;2022-10-01T01:47:54;100247.41;;;11.16;88.33
73748;BME280;62056;52.130;5.428;2022-10-01T01:50:24;100230.66;;;11.16;87.21
73748;BME280;62056;52.130;5.428;2022-10-01T01:52:54;100240.81;;;11.13;87.39
73748;BME280;62056;52.130;5.428;2022-10-01T01:55:22;100234.72;;;11.13;87.85
73748;BME280;62056;52.130;5.428;2022-10-01T01:57:49;100232.66;;;11.10;87.98
73748;BME280;62056;52.130;5.428;2022-10-01T02:00:16;100239.84;;;11.09;88.10
73748;BME280;62056;52.130;5.428;2022-10-01T02:02:47;100243.78;;;11.12;89.12
73748;BME280;62056;52.130;5.428;2022-10-01T02:05:18;100238.47;;;11.12;89.35
73748;BME280;62056;52.130;5.428;2022-10-01T02:07:54;100242.22;;;11.11;88.49
73748;BME280;62056;52.130;5.428;2022-10-01T02:16:00;100246.44;;;11.12;88.33
73748;BME280;62056;52.130;5.428;2022-10-01T02:18:55;100247.53;;;11.11;88.55
73748;BME280;62056;52.130;5.428;2022-10-01T02:21:34;100247.53;;;11.11;88.68
73748;BME280;62056;52.130;5.428;2022-10-01T02:24:13;100233.94;;;11.12;89.36
73748;BME280;62056;52.130;5.428;2022-10-01T02:26:44;100244.09;;;11.10;88.78
73748;BME280;62056;52.130;5.428;2022-10-01T02:29:16;100233.75;;;11.09;89.66
73748;BME280;62056;52.130;5.428;2022-10-01T02:31:45;100246.44;;;11.12;89.48
73748;BME280;62056;52.130;5.428;2022-10-01T02:34:13;100229.41;;;11.13;89.46
73748;BME280;62056;52.130;5.428;2022-10-01T02:36:46;100241.94;;;11.12;89.14
73748;BME280;62056;52.130;5.428;2022-10-01T02:39:15;100240.06;;;11.13;89.37
73748;BME280;62056;52.130;5.428;2022-10-01T02:41:44;100234.44;;;11.14;89.09
73748;BME280;62056;52.130;5.428;2022-10-01T02:44:16;100224.56;;;11.15;89.33
73748;BME280;62056;52.130;5.428;2022-10-01T02:47:05;100239.44;;;11.16;89.38
73748;BME280;62056;52.130;5.428;2022-10-01T02:49:34;100231.94;;;11.18;89.20
73748;BME280;62056;52.130;5.428;2022-10-01T02:52:20;100216.72;;;11.19;90.56
73748;BME280;62056;52.130;5.428;2022-10-01T02:55:09;100220.50;;;11.18;89.92
73748;BME280;62056;52.130;5.428;2022-10-01T02:57:37;100231.34;;;11.21;90.52
73748;BME280;62056;52.130;5.428;2022-10-01T03:00:08;100223.66;;;11.20;89.17
73748;BME280;62056;52.130;5.428;2022-10-01T03:02:35;100222.88;;;11.19;89.55
73748;BME280;62056;52.130;5.428;2022-10-01T03:05:02;100234.00;;;11.21;89.21
73748;BME280;62056;52.130;5.428;2022-10-01T03:07:31;100223.81;;;11.23;89.22
73748;BME280;62056;52.130;5.428;2022-10-01T03:10:01;100222.72;;;11.24;89.63
73748;BME280;62056;52.130;5.428;2022-10-01T03:12:28;100213.19;;;11.23;89.20
73748;BME280;62056;52.130;5.428;2022-10-01T03:14:54;100206.75;;;11.24;89.54
73748;BME280;62056;52.130;5.428;2022-10-01T03:17:21;100190.00;;;11.24;89.23
73748;BME280;62056;52.130;5.428;2022-10-01T03:19:48;100202.69;;;11.27;89.64
73748;BME280;62056;52.130;5.428;2022-10-01T03:22:16;100189.56;;;11.30;89.69
73748;BME280;62056;52.130;5.428;2022-10-01T03:24:49;100192.22;;;11.30;89.78
73748;BME280;62056;52.130;5.428;2022-10-01T03:27:16;100188.97;;;11.33;89.84
73748;BME280;62056;52.130;5.428;2022-10-01T03:29:43;100190.53;;;11.34;89.33
73748;BME280;62056;52.130;5.428;2022-10-01T03:32:10;100185.19;;;11.34;89.43
73748;BME280;62056;52.130;5.428;2022-10-01T03:34:37;100187.88;;;11.34;89.30
73748;BME280;62056;52.130;5.428;2022-10-01T03:37:04;100171.28;;;11.38;89.91
73748;BME280;62056;52.130;5.428;2022-10-01T03:39:31;100182.72;;;11.38;89.54
73748;BME280;62056;52.130;5.428;2022-10-01T03:41:57;100183.97;;;11.41;89.58
73748;BME280;62056;52.130;5.428;2022-10-01T03:44:24;100182.09;;;11.41;89.85
73748;BME280;62056;52.130;5.428;2022-10-01T03:46:51;100166.91;;;11.42;89.84
73748;BME280;62056;52.130;5.428;2022-10-01T03:49:17;100184.94;;;11.45;90.14
73748;BME280;62056;52.130;5.428;2022-10-01T03:51:44;100181.19;;;11.46;90.31
73748;BME280;62056;52.130;5.428;2022-10-01T03:54:10;100180.09;;;11.47;89.90
73748;BME280;62056;52.130;5.428;2022-10-01T03:56:37;100177.91;;;11.49;89.80
73748;BME280;62056;52.130;5.428;2022-10-01T03:59:06;100182.44;;;11.48;90.24
73748;BME280;62056;52.130;5.428;2022-10-01T04:01:32;100185.59;;;11.50;90.01
73748;BME280;62056;52.130;5.428;2022-10-01T04:04:00;100194.06;;;11.52;90.08
73748;BME280;62056;52.130;5.428;2022-10-01T04:06:26;100185.75;;;11.54;90.40
73748;BME280;62056;52.130;5.428;2022-10-01T04:08:53;100189.97;;;11.55;89.66
73748;BME280;62056;52.130;5.428;2022-10-01T04:11:19;100192.34;;;11.57;90.22
73748;BME280;62056;52.130;5.428;2022-10-01T04:13:46;100193.59;;;11.59;89.84
73748;BME280;62056;52.130;5.428;2022-10-01T04:16:13;100193.59;;;11.59;89.84
73748;BME280;62056;52.130;5.428;2022-10-01T04:18:41;100199.88;;;11.63;90.15
73748;BME280;62056;52.130;5.428;2022-10-01T04:21:08;100199.09;;;11.63;90.04
73748;BME280;62056;52.130;5.428;2022-10-01T04:23:35;100200.34;;;11.65;90.09
73748;BME280;62056;52.130;5.428;2022-10-01T04:26:03;100199.59;;;11.65;89.85
73748;BME280;62056;52.130;5.428;2022-10-01T04:28:30;100208.81;;;11.67;90.48
73748;BME280;62056;52.130;5.428;2022-10-01T04:30:57;100210.38;;;11.68;90.25
73748;BME280;62056;52.130;5.428;2022-10-01T04:33:42;100217.28;;;11.69;90.05
73748;BME280;62056;52.130;5.428;2022-10-01T04:36:09;100218.84;;;11.70;90.38
73748;BME280;62056;52.130;5.428;2022-10-01T04:38:35;100229.22;;;11.72;89.91
73748;BME280;62056;52.130;5.428;2022-10-01T04:41:02;100228.91;;;11.73;90.28
73748;BME280;62056;52.130;5.428;2022-10-01T04:43:29;100244.59;;;11.75;90.21
73748;BME280;62056;52.130;5.428;2022-10-01T04:45:55;100247.25;;;11.75;89.88
73748;BME280;62056;52.130;5.428;2022-10-01T04:48:22;100251.94;;;11.78;89.85
73748;BME280;62056;52.130;5.428;2022-10-01T04:50:49;100249.28;;;11.78;90.60
73748;BME280;62056;52.130;5.428;2022-10-01T04:53:15;100253.53;;;11.79;89.96
73748;BME280;62056;52.130;5.428;2022-10-01T04:55:42;100258.06;;;11.79;89.59
73748;BME280;62056;52.130;5.428;2022-10-01T04:58:09;100250.53;;;11.81;90.01
73748;BME280;62056;52.130;5.428;2022-10-01T05:00:35;100257.13;;;11.83;90.42
73748;BME280;62056;52.130;5.428;2022-10-01T05:03:02;100269.38;;;11.84;90.00
73748;BME280;62056;52.130;5.428;2022-10-01T05:05:29;100259.19;;;11.86;90.43
73748;BME280;62056;52.130;5.428;2022-10-01T05:07:58;100266.88;;;11.88;90.80
73748;BME280;62056;52.130;5.428;2022-10-01T05:10:25;100269.25;;;11.89;90.28
73748;BME280;62056;52.130;5.428;2022-10-01T05:12:51;100279.59;;;11.91;90.50
73748;BME280;62056;52.130;5.428;2022-10-01T05:15:18;100285.09;;;11.94;90.31
73748;BME280;62056;52.130;5.428;2022-10-01T05:17:45;100287.00;;;11.94;90.10
73748;BME280;62056;52.130;5.428;2022-10-01T05:20:17;100288.25;;;11.97;90.41
73748;BME280;62056;52.130;5.428;2022-10-01T05:22:45;100290.91;;;11.97;90.39
73748;BME280;62056;52.130;5.428;2022-10-01T05:25:12;100290.28;;;12.00;90.54
73748;BME280;62056;52.130;5.428;2022-10-01T05:27:39;100301.28;;;11.98;90.40
73748;BME280;62056;52.130;5.428;2022-10-01T05:30:08;100301.28;;;11.98;90.29
73748;BME280;62056;52.130;5.428;2022-10-01T05:32:35;100308.94;;;12.00;90.73
73748;BME280;62056;52.130;5.428;2022-10-01T05:35:03;100311.31;;;12.01;90.23
73748;BME280;62056;52.130;5.428;2022-10-01T05:37:30;100322.75;;;12.02;89.95
73748;BME280;62056;52.130;5.428;2022-10-01T05:39:58;100323.53;;;12.02;90.63
73748;BME280;62056;52.130;5.428;2022-10-01T05:42:25;100330.72;;;12.02;89.97
73748;BME280;62056;52.130;5.428;2022-10-01T05:44:51;100337.66;;;12.03;90.16
73748;BME280;62056;52.130;5.428;2022-10-01T05:47:18;100327.78;;;12.03;90.72
73748;BME280;62056;52.130;5.428;2022-10-01T05:49:46;100332.63;;;12.01;90.29
73748;BME280;62056;52.130;5.428;2022-10-01T05:52:14;100335.28;;;12.01;90.51
73748;BME280;62056;52.130;5.428;2022-10-01T05:54:40;100335.09;;;11.98;89.72
73748;BME280;62056;52.130;5.428;2022-10-01T05:57:07;100340.44;;;11.98;90.20
73748;BME280;62056;52.130;5.428;2022-10-01T05:59:34;100348.44;;;11.98;90.13
73748;BME280;62056;52.130;5.428;2022-10-01T06:02:02;100353.75;;;11.98;89.80
73748;BME280;62056;52.130;5.428;2022-10-01T06:04:29;100355.94;;;11.95;90.00
73748;BME280;62056;52.130;5.428;2022-10-01T06:06:56;100352.78;;;11.93;89.80
73748;BME280;62056;52.130;5.428;2022-10-01T06:09:23;100351.25;;;11.92;89.86
73748;BME280;62056;52.130;5.428;2022-10-01T06:11:50;100354.97;;;11.91;90.12
73748;BME280;62056;52.130;5.428;2022-10-01T06:14:16;100362.97;;;11.91;89.85
73748;BME280;62056;52.130;5.428;2022-10-01T06:16:43;100352.66;;;11.90;90.11
73748;BME280;62056;52.130;5.428;2022-10-01T06:19:10;100362.50;;;11.89;89.69
73748;BME280;62056;52.130;5.428;2022-10-01T06:21:36;100361.41;;;11.90;90.24
73748;BME280;62056;52.130;5.428;2022-10-01T06:24:03;100365.16;;;11.89;90.47
73748;BME280;62056;52.130;5.428;2022-10-01T06:26:32;100364.38;;;11.89;89.83
73748;BME280;62056;52.130;5.428;2022-10-01T06:28:58;100365.16;;;11.89;90.33
73748;BME280;62056;52.130;5.428;2022-10-01T06:31:25;100362.50;;;11.89;90.17
73748;BME280;62056;52.130;5.428;2022-10-01T06:33:51;100367.22;;;11.92;90.36
73748;BME280;62056;52.130;5.428;2022-10-01T06:36:18;100366.44;;;11.92;89.99
73748;BME280;62056;52.130;5.428;2022-10-01T06:38:48;100366.94;;;11.94;90.72
73748;BME280;62056;52.130;5.428;2022-10-01T06:41:15;100377.25;;;11.95;90.05
73748;BME280;62056;52.130;5.428;2022-10-01T06:43:41;100370.84;;;11.97;90.26
73748;BME280;62056;52.130;5.428;2022-10-01T06:46:08;100367.06;;;11.98;90.63
73748;BME280;62056;52.130;5.428;2022-10-01T06:48:34;100371.03;;;12.00;90.82
73748;BME280;62056;52.130;5.428;2022-10-01T06:51:02;100370.69;;;12.02;90.54
73748;BME280;62056;52.130;5.428;2022-10-01T06:53:29;100381.53;;;12.05;90.98
73748;BME280;62056;52.130;5.428;2022-10-01T06:55:56;100383.63;;;12.08;90.64
73748;BME280;62056;52.130;5.428;2022-10-01T06:58:28;100381.72;;;12.09;90.49
73748;BME280;62056;52.130;5.428;2022-10-01T07:00:59;100388.78;;;12.13;91.39
73748;BME280;62056;52.130;5.428;2022-10-01T07:03:27;100381.28;;;12.15;90.87
73748;BME280;62056;52.130;5.428;2022-10-01T07:06:00;100378.78;;;12.19;91.40
73748;BME280;62056;52.130;5.428;2022-10-01T07:08:26;100379.28;;;12.21;91.10
73748;BME280;62056;52.130;5.428;2022-10-01T07:10:58;100382.91;;;12.25;90.93
73748;BME280;62056;52.130;5.428;2022-10-01T07:13:25;100384.63;;;12.30;90.79
73748;BME280;62056;52.130;5.428;2022-10-01T07:15:51;100389.50;;;12.37;90.64
73748;BME280;62056;52.130;5.428;2022-10-01T07:18:18;100390.47;;;12.41;91.46
73748;BME280;62056;52.130;5.428;2022-10-01T07:20:44;100404.59;;;12.50;91.94
73748;BME280;62056;52.130;5.428;2022-10-01T07:23:12;100419.38;;;12.56;91.86
73748;BME280;62056;52.130;5.428;2022-10-01T07:25:40;100431.16;;;12.64;91.92
73748;BME280;62056;52.130;5.428;2022-10-01T07:28:12;100426.19;;;12.71;91.83
73748;BME280;62056;52.130;5.428;2022-10-01T07:30:47;100431.38;;;12.76;91.64
73748;BME280;62056;52.130;5.428;2022-10-01T07:33:21;100437.03;;;12.83;92.09
73748;BME280;62056;52.130;5.428;2022-10-01T07:35:48;100440.63;;;12.87;91.61
73748;BME280;62056;52.130;5.428;2022-10-01T07:38:16;100437.84;;;12.92;92.08
73748;BME280;62056;52.130;5.428;2022-10-01T07:40:43;100442.22;;;12.97;91.56
73748;BME280;62056;52.130;5.428;2022-10-01T07:43:10;100449.31;;;13.02;91.98
73748;BME280;62056;52.130;5.428;2022-10-01T07:45:36;100439.56;;;13.06;91.80
73748;BME280;62056;52.130;5.428;2022-10-01T07:48:03;100441.94;;;13.07;91.90
73748;BME280;62056;52.130;5.428;2022-10-01T07:50:30;100445.56;;;13.11;92.24
73748;BME280;62056;52.130;5.428;2022-10-01T07:52:58;100443.84;;;13.15;92.48
73748;BME280;62056;52.130;5.428;2022-10-01T07:55:26;100450.91;;;13.20;92.03
73748;BME280;62056;52.130;5.428;2022-10-01T07:57:57;100456.09;;;13.25;92.01
73748;BME280;62056;52.130;5.428;2022-10-01T08:00:28;100455.47;;;13.28;92.20
73748;BME280;62056;52.130;5.428;2022-10-01T08:02:56;100460.69;;;13.33;92.37
73748;BME280;62056;52.130;5.428;2022-10-01T08:05:26;100459.75;;;13.38;92.65
73748;BME280;62056;52.130;5.428;2022-10-01T08:08:01;100463.06;;;13.44;92.83
73748;BME280;62056;52.130;5.428;2022-10-01T08:10:29;100469.31;;;13.48;92.55
73748;BME280;62056;52.130;5.428;2022-10-01T08:13:07;100467.13;;;13.50;92.81
73748;BME280;62056;52.130;5.428;2022-10-01T08:15:41;100471.38;;;13.51;92.35
73748;BME280;62056;52.130;5.428;2022-10-01T08:18:08;100471.38;;;13.51;92.13
73748;BME280;62056;52.130;5.428;2022-10-01T08:20:37;100477.19;;;13.53;92.17
73748;BME280;62056;52.130;5.428;2022-10-01T08:23:10;100474.53;;;13.53;92.91
73748;BME280;62056;52.130;5.428;2022-10-01T08:25:37;100488.03;;;13.56;92.41
73748;BME280;62056;52.130;5.428;2022-10-01T08:28:05;100492.75;;;13.60;92.70
73748;BME280;62056;52.130;5.428;2022-10-01T08:30:32;100489.78;;;13.61;93.06
73748;BME280;62056;52.130;5.428;2022-10-01T08:32:59;100495.59;;;13.63;92.61
73748;BME280;62056;52.130;5.428;2022-10-01T08:35:30;100496.34;;;13.64;92.90
73748;BME280;62056;52.130;5.428;2022-10-01T08:38:04;100496.84;;;13.66;92.28
73748;BME280;62056;52.130;5.428;2022-10-01T08:40:36;100495.75;;;13.67;92.52
73748;BME280;62056;52.130;5.428;2022-10-01T08:43:24;100501.88;;;13.67;92.90
73748;BME280;62056;52.130;5.428;2022-10-01T08:45:55;100499.97;;;13.68;92.89
73748;BME280;62056;52.130;5.428;2022-10-01T08:48:36;100501.22;;;13.70;92.78
73748;BME280;62056;52.130;5.428;2022-10-01T08:51:26;100503.75;;;13.75;93.18
73748;BME280;62056;52.130;5.428;2022-10-01T08:57:00;100515.38;;;13.88;93.14
73748;BME280;62056;52.130;5.428;2022-10-01T08:59:42;100524.34;;;13.92;92.55
73748;BME280;62056;52.130;5.428;2022-10-01T09:02:22;100530.16;;;13.94;92.94
73748;BME280;62056;52.130;5.428;2022-10-01T09:04:55;100533.00;;;13.98;92.87
73748;BME280;62056;52.130;5.428;2022-10-01T09:07:36;100528.88;;;14.01;92.94
73748;BME280;62056;52.130;5.428;2022-10-01T09:10:29;100519.91;;;14.05;92.69
73748;BME280;62056;52.130;5.428;2022-10-01T09:19:04;100533.59;;;14.21;93.02
73748;BME280;62056;52.130;5.428;2022-10-01T09:21:51;100549.13;;;14.28;92.19
73748;BME280;62056;52.130;5.428;2022-10-01T09:24:42;100540.63;;;14.34;92.75
73748;BME280;62056;52.130;5.428;2022-10-01T09:27:14;100543.91;;;14.40;92.95
73748;BME280;62056;52.130;5.428;2022-10-01T09:29:48;100542.66;;;14.46;93.09
73748;BME280;62056;52.130;5.428;2022-10-01T09:32:23;100547.19;;;14.54;93.11
73748;BME280;62056;52.130;5.428;2022-10-01T09:34:52;100544.19;;;14.65;93.27
73748;BME280;62056;52.130;5.428;2022-10-01T09:37:36;100551.88;;;14.75;93.09
73748;BME280;62056;52.130;5.428;2022-10-01T09:40:34;100553.41;;;14.85;93.02
73748;BME280;62056;52.130;5.428;2022-10-01T09:43:04;100553.03;;;14.95;92.55
73748;BME280;62056;52.130;5.428;2022-10-01T09:45:34;100561.19;;;15.07;92.84
73748;BME280;62056;52.130;5.428;2022-10-01T09:50:50;100556.00;;;15.32;91.85
73748;BME280;62056;52.130;5.428;2022-10-01T09:53:44;100555.94;;;15.41;88.83
73748;BME280;62056;52.130;5.428;2022-10-01T09:56:22;100569.75;;;15.51;90.35
73748;BME280;62056;52.130;5.428;2022-10-01T09:58:53;100562.75;;;15.59;87.98
73748;BME280;62056;52.130;5.428;2022-10-01T10:01:28;100570.28;;;15.66;88.26
73748;BME280;62056;52.130;5.428;2022-10-01T10:04:02;100579.50;;;15.77;89.55
73748;BME280;62056;52.130;5.428;2022-10-01T10:06:30;100597.78;;;15.84;89.30
73748;BME280;62056;52.130;5.428;2022-10-01T10:08:58;100589.91;;;15.78;89.30
73748;BME280;62056;52.130;5.428;2022-10-01T10:11:28;100602.44;;;15.66;89.87
73748;BME280;62056;52.130;5.428;2022-10-01T10:13:58;100603.34;;;15.49;90.27
73748;BME280;62056;52.130;5.428;2022-10-01T10:16:32;100615.88;;;15.36;90.57
73748;BME280;62056;52.130;5.428;2022-10-01T10:19:05;100607.53;;;15.29;90.65
73748;BME280;62056;52.130;5.428;2022-10-01T10:21:36;100619.38;;;15.28;90.80
73748;BME280;62056;52.130;5.428;2022-10-01T10:24:06;100622.06;;;15.28;90.42
73748;BME280;62056;52.130;5.428;2022-10-01T10:26:53;100622.66;;;15.33;90.45
73748;BME280;62056;52.130;5.428;2022-10-01T10:29:31;100635.72;;;15.35;90.51
73748;BME280;62056;52.130;5.428;2022-10-01T10:32:03;100636.97;;;15.37;89.80
73748;BME280;62056;52.130;5.428;2022-10-01T10:34:35;100648.94;;;15.40;89.60
73748;BME280;62056;52.130;5.428;2022-10-01T10:37:13;100650.19;;;15.43;89.55
73748;BME280;62056;52.130;5.428;2022-10-01T10:39:42;100649.97;;;15.48;89.16
73748;BME280;62056;52.130;5.428;2022-10-01T10:42:13;100647.44;;;15.51;87.27
73748;BME280;62056;52.130;5.428;2022-10-01T10:44:46;100663.16;;;15.62;88.34
73748;BME280;62056;52.130;5.428;2022-10-01T10:47:17;100655.41;;;15.69;87.80
73748;BME280;62056;52.130;5.428;2022-10-01T10:49:53;100664.19;;;15.78;87.54
73748;BME280;62056;52.130;5.428;2022-10-01T10:52:33;100671.56;;;15.90;86.77
73748;BME280;62056;52.130;5.428;2022-10-01T10:58:10;100669.50;;;16.08;85.66
73748;BME280;62056;52.130;5.428;2022-10-01T11:00:48;100685.44;;;16.13;85.07
73748;BME280;62056;52.130;5.428;2022-10-01T11:03:26;100676.84;;;16.19;84.80
73748;BME280;62056;52.130;5.428;2022-10-01T11:06:02;100688.81;;;16.22;82.40
73748;BME280;62056;52.130;5.428;2022-10-01T11:08:34;100694.63;;;16.24;83.07
73748;BME280;62056;52.130;5.428;2022-10-01T11:17:14;100710.16;;;16.39;81.77
73748;BME280;62056;52.130;5.428;2022-10-01T11:26:04;100726.19;;;16.48;77.66
73748;BME280;62056;52.130;5.428;2022-10-01T11:31:36;100737.56;;;16.24;75.88
73748;BME280;62056;52.130;5.428;2022-10-01T11:34:31;100751.56;;;16.09;75.97
73748;BME280;62056;52.130;5.428;2022-10-01T11:37:32;100746.13;;;15.96;77.28
73748;BME280;62056;52.130;5.428;2022-10-01T11:40:13;100753.09;;;15.89;76.50
73748;BME280;62056;52.130;5.428;2022-10-01T11:42:44;100758.66;;;15.84;77.22
73748;BME280;62056;52.130;5.428;2022-10-01T11:45:19;100763.09;;;15.80;77.02
73748;BME280;62056;52.130;5.428;2022-10-01T11:47:59;100771.28;;;15.74;76.17
73748;BME280;62056;52.130;5.428;2022-10-01T11:50:47;100763.09;;;15.71;75.32
73748;BME280;62056;52.130;5.428;2022-10-01T11:53:28;100777.13;;;15.76;75.33
73748;BME280;62056;52.130;5.428;2022-10-01T11:56:02;100778.34;;;15.88;74.81
73748;BME280;62056;52.130;5.428;2022-10-01T11:58:58;100774.19;;;15.99;73.59
73748;BME280;62056;52.130;5.428;2022-10-01T12:01:30;100784.22;;;16.11;73.40
73748;BME280;62056;52.130;5.428;2022-10-01T12:06:59;100783.25;;;16.36;70.30
73748;BME280;62056;52.130;5.428;2022-10-01T12:09:49;100788.16;;;16.34;69.26
73748;BME280;62056;52.130;5.428;2022-10-01T12:12:44;100802.09;;;16.28;69.67
73748;BME280;62056;52.130;5.428;2022-10-01T12:15:23;100812.69;;;16.24;69.99
73748;BME280;62056;52.130;5.428;2022-10-01T12:18:12;100823.94;;;16.17;70.54
73748;BME280;62056;52.130;5.428;2022-10-01T12:21:07;100810.38;;;16.14;70.58
73748;BME280;62056;52.130;5.428;2022-10-01T12:23:50;100807.22;;;16.12;70.02
73748;BME280;62056;52.130;5.428;2022-10-01T12:29:25;100805.31;;;16.21;71.46
73748;BME280;62056;52.130;5.428;2022-10-01T12:32:11;100810.16;;;16.28;72.16
73748;BME280;62056;52.130;5.428;2022-10-01T12:35:26;100813.38;;;16.42;72.66
73748;BME280;62056;52.130;5.428;2022-10-01T12:38:22;100819.75;;;16.58;70.21
73748;BME280;62056;52.130;5.428;2022-10-01T12:41:04;100816.91;;;16.76;70.90
73748;BME280;62056;52.130;5.428;2022-10-01T12:46:54;100835.50;;;16.90;68.13
73748;BME280;62056;52.130;5.428;2022-10-01T12:52:35;100852.03;;;16.71;66.86
73748;BME280;62056;52.130;5.428;2022-10-01T12:55:26;100854.66;;;16.58;65.19
73748;BME280;62056;52.130;5.428;2022-10-01T12:58:13;100859.59;;;16.48;65.77
73748;BME280;62056;52.130;5.428;2022-10-01T13:00:50;100857.56;;;16.45;65.91
73748;BME280;62056;52.130;5.428;2022-10-01T13:03:31;100868.44;;;16.48;66.51
73748;BME280;62056;52.130;5.428;2022-10-01T13:06:29;100862.81;;;16.62;66.01
73748;BME280;62056;52.130;5.428;2022-10-01T13:09:27;100864.00;;;16.73;65.72
73748;BME280;62056;52.130;5.428;2022-10-01T13:12:08;100863.66;;;16.84;63.19
73748;BME280;62056;52.130;5.428;2022-10-01T13:14:52;100865.50;;;16.92;62.53
73748;BME280;62056;52.130;5.428;2022-10-01T13:17:26;100875.44;;;16.91;63.49
73748;BME280;62056;52.130;5.428;2022-10-01T13:20:07;100881.94;;;16.90;63.29
73748;BME280;62056;52.130;5.428;2022-10-01T13:22:46;100885.25;;;16.87;63.55
73748;BME280;62056;52.130;5.428;2022-10-01T13:25:51;100888.53;;;16.93;64.02
73748;BME280;62056;52.130;5.428;2022-10-01T13:28:29;100885.53;;;16.94;64.31
73748;BME280;62056;52.130;5.428;2022-10-01T13:31:00;100896.97;;;17.04;64.75
73748;BME280;62056;52.130;5.428;2022-10-01T13:33:35;100901.50;;;17.12;64.87
73748;BME280;62056;52.130;5.428;2022-10-01T13:36:08;100908.53;;;17.25;64.85
73748;BME280;62056;52.130;5.428;2022-10-01T13:38:43;100896.56;;;17.35;64.10
73748;BME280;62056;52.130;5.428;2022-10-01T13:41:25;100914.72;;;17.38;63.71
73748;BME280;62056;52.130;5.428;2022-10-01T13:44:21;100908.81;;;17.45;64.03
73748;BME280;62056;52.130;5.428;2022-10-01T13:46:51;100919.56;;;17.45;63.30
73748;BME280;62056;52.130;5.428;2022-10-01T13:49:27;100928.94;;;17.38;63.56
73748;BME280;62056;52.130;5.428;2022-10-01T13:51:56;100933.63;;;17.29;64.09
73748;BME280;62056;52.130;5.428;2022-10-01T13:54:45;100939.19;;;17.24;65.29
73748;BME280;62056;52.130;5.428;2022-10-01T13:59:59;100933.81;;;17.24;65.17
73748;BME280;62056;52.130;5.428;2022-10-01T14:02:30;100937.94;;;17.22;64.89
73748;BME280;62056;52.130;5.428;2022-10-01T14:05:14;100953.00;;;17.14;62.88
73748;BME280;62056;52.130;5.428;2022-10-01T14:07:47;100966.31;;;17.10;63.50
73748;BME280;62056;52.130;5.428;2022-10-01T14:10:15;100960.03;;;17.06;63.53
73748;BME280;62056;52.130;5.428;2022-10-01T14:12:44;100949.94;;;17.03;63.37
73748;BME280;62056;52.130;5.428;2022-10-01T14:15:43;100970.31;;;17.04;63.32